createdAt,value
2019-04-11T00:01:46.898Z,9.70
2019-04-11T00:05:54.896Z,9.70
2019-04-11T00:10:08.212Z,9.80
2019-04-11T00:14:16.433Z,10.00
2019-04-11T00:18:27.061Z,9.80
2019-04-11T00:22:40.354Z,9.80
2019-04-11T00:26:54.813Z,9.80
2019-04-11T00:31:09.487Z,9.80
2019-04-11T00:35:28.215Z,9.80
2019-04-11T00:39:40.642Z,9.70
2019-04-11T00:43:50.575Z,9.70
2019-04-11T00:47:59.979Z,9.70
2019-04-11T00:52:08.478Z,9.50
2019-04-11T00:56:17.848Z,9.50
2019-04-11T01:00:29.079Z,9.50
2019-04-11T01:04:37.426Z,9.50
2019-04-11T01:08:48.531Z,9.60
2019-04-11T01:13:00.787Z,9.40
2019-04-11T01:17:15.445Z,9.50
2019-04-11T01:21:30.611Z,9.60
2019-04-11T01:25:40.928Z,9.50
2019-04-11T01:29:52.049Z,9.60
2019-04-11T01:34:04.499Z,9.50
2019-04-11T01:38:22.152Z,9.40
2019-04-11T01:42:33.373Z,9.60
2019-04-11T01:46:48.565Z,9.50
2019-04-11T01:50:59.088Z,9.30
2019-04-11T01:55:14.405Z,9.40
2019-04-11T01:59:27.070Z,9.40
2019-04-11T02:03:55.886Z,9.30
2019-04-11T02:08:09.560Z,9.30
2019-04-11T02:12:20.810Z,9.30
2019-04-11T02:16:30.531Z,9.30
2019-04-11T02:20:42.042Z,9.30
2019-04-11T02:25:00.786Z,9.30
2019-04-11T02:29:13.775Z,9.30
2019-04-11T02:33:27.042Z,9.20
2019-04-11T02:37:37.950Z,9.00
2019-04-11T02:41:54.786Z,9.10
2019-04-11T02:46:23.223Z,8.80
2019-04-11T02:50:26.749Z,9.20
2019-04-11T02:54:38.742Z,9.10
2019-04-11T02:58:50.484Z,9.20
2019-04-11T03:03:05.669Z,9.20
2019-04-11T03:07:20.442Z,9.10
2019-04-11T03:11:38.507Z,9.00
2019-04-11T03:15:59.494Z,9.10
2019-04-11T03:20:13.046Z,9.20
2019-04-11T03:24:17.452Z,9.00
2019-04-11T03:28:33.399Z,9.10
2019-04-11T03:33:43.823Z,8.90
2019-04-11T03:37:23.636Z,9.20
2019-04-11T03:41:23.672Z,8.90
2019-04-11T03:45:43.853Z,9.00
2019-04-11T03:49:51.856Z,9.10
2019-04-11T04:06:06.666Z,9.00
2019-04-11T04:10:31.899Z,8.90
2019-04-11T04:15:01.389Z,8.90
2019-04-11T04:19:33.302Z,8.80
2019-04-11T04:23:49.495Z,8.80
2019-04-11T04:27:58.911Z,8.90
2019-04-11T04:32:08.205Z,8.90
2019-04-11T04:36:17.737Z,8.90
2019-04-11T04:40:46.307Z,8.80
2019-04-11T04:44:40.449Z,8.90
2019-04-11T04:48:51.469Z,8.90
2019-04-11T04:53:00.933Z,8.90
2019-04-11T04:57:09.283Z,9.00
2019-04-11T05:01:17.564Z,8.90
2019-04-11T05:05:26.831Z,8.90
2019-04-11T05:09:36.067Z,8.60
2019-04-11T05:13:48.190Z,8.70
2019-04-11T05:17:53.295Z,8.70
2019-04-11T05:22:01.811Z,8.30
2019-04-11T05:26:09.130Z,8.50
2019-04-11T05:30:16.763Z,8.60
2019-04-11T05:34:25.841Z,8.40
2019-04-11T05:38:33.377Z,8.60
2019-04-11T05:42:41.713Z,8.60
2019-04-11T05:46:56.234Z,8.60
2019-04-11T05:51:00.522Z,8.60
2019-04-11T05:55:13.527Z,8.80
2019-04-11T05:59:25.566Z,8.70
2019-04-11T06:03:32.439Z,8.60
2019-04-11T06:08:05.445Z,8.60
2019-04-11T06:12:31.787Z,8.60
2019-04-11T06:16:46.179Z,8.60
2019-04-11T06:20:51.836Z,8.60
2019-04-11T06:25:28.163Z,8.60
2019-04-11T06:30:01.274Z,8.60
2019-04-11T06:34:09.920Z,8.50
2019-04-11T06:38:44.966Z,8.70
2019-04-11T06:43:04.135Z,8.80
2019-04-11T06:47:32.832Z,8.60
2019-04-11T06:51:50.474Z,8.90
2019-04-11T06:56:19.539Z,8.50
2019-04-11T07:00:27.582Z,8.90
2019-04-11T07:04:38.157Z,8.80
2019-04-11T07:09:12.791Z,9.00
2019-04-11T07:13:37.154Z,8.90
2019-04-11T07:18:04.702Z,9.00
2019-04-11T07:22:30.533Z,9.30
2019-04-11T07:26:43.940Z,9.30
2019-04-11T07:31:08.380Z,9.30
2019-04-11T07:35:33.644Z,9.40
2019-04-11T07:39:58.703Z,9.40
2019-04-11T07:44:06.408Z,9.30
2019-04-11T07:48:21.452Z,9.40
2019-04-11T07:52:30.587Z,9.20
2019-04-11T07:56:46.356Z,9.60
2019-04-11T08:01:24.898Z,9.50
2019-04-11T08:06:07.462Z,9.70
2019-04-11T08:10:20.602Z,9.50
2019-04-11T08:15:01.690Z,9.80
2019-04-11T08:19:26.883Z,9.80
2019-04-11T08:23:34.476Z,9.80
2019-04-11T08:27:54.917Z,9.70
2019-04-11T08:32:19.912Z,9.70
2019-04-11T08:36:47.162Z,9.80
2019-04-11T08:41:09.622Z,9.80
2019-04-11T08:45:17.621Z,10.00
2019-04-11T08:49:35.084Z,10.00
2019-04-11T08:53:59.888Z,10.00
2019-04-11T08:58:29.364Z,10.10
2019-04-11T09:02:51.375Z,10.00
2019-04-11T09:06:59.167Z,10.10
2019-04-11T09:11:26.564Z,10.30
2019-04-11T09:16:10.940Z,10.10
2019-04-11T09:20:35.925Z,10.30
2019-04-11T09:25:00.996Z,10.10
2019-04-11T09:29:08.531Z,10.50
2019-04-11T09:33:33.587Z,10.50
2019-04-11T09:37:44.556Z,10.50
2019-04-11T09:42:26.406Z,10.50
2019-04-11T09:46:53.296Z,10.40
2019-04-11T09:51:19.549Z,10.40
2019-04-11T09:55:51.898Z,10.50
2019-04-11T10:00:27.034Z,10.60
2019-04-11T10:04:36.103Z,10.60
2019-04-11T10:08:46.960Z,10.50
2019-04-11T10:13:13.021Z,10.50
2019-04-11T10:17:42.476Z,10.70
2019-04-11T10:22:04.887Z,10.80
2019-04-11T10:26:21.045Z,10.60
2019-04-11T10:30:46.488Z,10.90
2019-04-11T10:35:19.044Z,10.80
2019-04-11T10:40:00.268Z,10.70
2019-04-11T10:44:08.252Z,10.90
2019-04-11T10:48:17.878Z,10.80
2019-04-11T10:52:28.787Z,10.80
2019-04-11T10:57:07.594Z,10.90
2019-04-11T11:01:42.740Z,10.80
2019-04-11T11:05:53.371Z,10.90
2019-04-11T11:10:07.045Z,11.00
2019-04-11T11:14:52.401Z,11.00
2019-04-11T11:19:33.767Z,11.00
2019-04-11T11:23:45.105Z,11.10
2019-04-11T11:27:52.420Z,11.10
2019-04-11T11:32:07.062Z,11.00
2019-04-11T11:36:37.608Z,11.00
2019-04-11T11:41:16.336Z,11.20
2019-04-11T11:45:54.906Z,11.00
2019-04-11T11:50:03.324Z,11.00
2019-04-11T11:54:31.469Z,11.00
2019-04-11T11:59:02.815Z,11.00
2019-04-11T12:03:30.960Z,11.00
2019-04-11T12:07:47.926Z,11.00
2019-04-11T12:11:59.591Z,11.00
2019-04-11T12:16:29.978Z,11.10
2019-04-11T12:20:44.760Z,11.10
2019-04-11T12:25:05.469Z,10.90
2019-04-11T12:29:24.415Z,10.90
2019-04-11T12:33:50.288Z,10.90
2019-04-11T12:38:02.647Z,11.00
2019-04-11T12:42:21.341Z,10.90
2019-04-11T12:46:46.821Z,10.90
2019-04-11T12:51:15.690Z,10.90
2019-04-11T12:55:28.469Z,10.90
2019-04-11T12:59:36.244Z,11.00
2019-04-11T13:04:00.839Z,11.00
2019-04-11T13:08:27.962Z,11.00
2019-04-11T13:12:59.877Z,11.00
2019-04-11T13:17:08.531Z,11.00
2019-04-11T13:21:34.425Z,11.00
2019-04-11T13:26:18.959Z,11.00
2019-04-11T13:30:43.387Z,11.00
2019-04-11T13:34:51.299Z,10.90
2019-04-11T13:39:02.524Z,10.90
2019-04-11T13:43:26.807Z,10.90
2019-04-11T13:47:57.117Z,10.90
2019-04-11T13:52:23.179Z,10.80
2019-04-11T13:56:40.218Z,11.00
2019-04-11T14:00:59.728Z,11.00
2019-04-11T14:05:10.638Z,11.10
2019-04-11T14:09:34.176Z,10.90
2019-04-11T14:13:43.066Z,10.90
2019-04-11T14:18:24.849Z,11.10
2019-04-11T14:22:33.954Z,11.00
2019-04-11T14:26:44.334Z,11.20
2019-04-11T14:31:03.396Z,10.80
2019-04-11T14:35:28.083Z,11.00
2019-04-11T14:39:39.352Z,10.90
2019-04-11T14:43:54.200Z,10.90
2019-04-11T14:48:17.029Z,10.90
2019-04-11T14:57:42.630Z,11.10
2019-04-11T15:01:54.622Z,10.80
2019-04-11T15:06:19.740Z,10.70
2019-04-11T15:10:54.407Z,10.80
2019-04-11T15:15:20.321Z,10.80
2019-04-11T15:19:27.726Z,10.90
2019-04-11T15:23:38.420Z,10.70
2019-04-11T15:28:04.462Z,10.80
2019-04-11T15:33:04.846Z,10.90
2019-04-11T15:37:29.606Z,10.90
2019-04-11T15:41:39.705Z,10.70
2019-04-11T15:45:54.670Z,10.90
2019-04-11T15:50:36.556Z,10.80
2019-04-11T15:55:02.519Z,10.80
2019-04-11T15:59:26.687Z,10.80
2019-04-11T16:03:34.385Z,10.70
2019-04-11T16:08:13.841Z,10.80
2019-04-11T16:12:29.902Z,10.50
2019-04-11T16:17:13.948Z,10.50
2019-04-11T16:21:25.075Z,10.60
2019-04-11T16:25:34.341Z,10.40
2019-04-11T16:29:49.256Z,10.20
2019-04-11T16:34:08.259Z,10.30
2019-04-11T16:38:19.139Z,10.30
2019-04-11T16:42:41.513Z,10.30
2019-04-11T16:47:08.291Z,10.40
2019-04-11T16:51:17.242Z,10.20
2019-04-11T16:55:24.574Z,10.10
2019-04-11T16:59:31.846Z,9.90
2019-04-11T17:03:39.158Z,9.90
2019-04-11T17:07:57.185Z,10.10
2019-04-11T17:12:07.559Z,10.10
2019-04-11T17:16:17.126Z,10.10
2019-04-11T17:20:25.069Z,9.90
2019-04-11T17:24:33.431Z,9.80
2019-04-11T17:28:43.332Z,9.20
2019-04-11T17:32:50.913Z,9.40
2019-04-11T17:37:02.552Z,9.50
2019-04-11T17:41:11.977Z,9.60
2019-04-11T17:45:19.390Z,9.50
2019-04-11T17:49:29.484Z,9.60
2019-04-11T17:53:40.690Z,9.50
2019-04-11T17:57:49.314Z,9.50
2019-04-11T18:01:57.513Z,9.60
2019-04-11T18:06:07.700Z,9.50
2019-04-11T18:10:15.231Z,9.50
2019-04-11T18:14:25.254Z,9.30
2019-04-11T18:18:35.316Z,9.50
2019-04-11T18:22:50.379Z,9.30
2019-04-11T18:26:57.055Z,9.30
2019-04-11T18:31:07.385Z,9.30
2019-04-11T18:35:17.571Z,9.20
2019-04-11T18:39:28.022Z,9.10
2019-04-11T18:43:34.580Z,9.10
2019-04-11T18:47:45.098Z,9.20
2019-04-11T18:51:54.351Z,9.10
2019-04-11T18:56:05.484Z,9.10
2019-04-11T19:00:15.278Z,9.10
2019-04-11T19:04:31.744Z,9.00
2019-04-11T19:08:35.365Z,9.00
2019-04-11T19:12:46.444Z,8.80
2019-04-11T19:16:54.702Z,8.80
2019-04-11T19:21:03.664Z,9.00
2019-04-11T19:25:13.213Z,8.80
2019-04-11T19:29:24.797Z,8.90
2019-04-11T19:33:36.486Z,8.80
2019-04-11T19:37:45.103Z,8.90
2019-04-11T19:41:56.832Z,8.70
2019-04-11T19:46:09.849Z,8.70
2019-04-11T19:50:18.720Z,8.70
2019-04-11T19:54:32.729Z,8.40
2019-04-11T19:58:39.526Z,8.60
2019-04-11T20:02:47.037Z,8.50
2019-04-11T20:06:54.980Z,8.60
2019-04-11T20:11:04.204Z,8.50
2019-04-11T20:15:20.713Z,8.40
2019-04-11T20:19:32.588Z,8.40
2019-04-11T20:23:41.867Z,8.60
2019-04-11T20:27:51.356Z,8.40
2019-04-11T20:31:58.912Z,8.40
2019-04-11T20:36:11.111Z,8.40
2019-04-11T20:40:24.626Z,8.30
2019-04-11T20:44:32.700Z,8.30
2019-04-11T20:48:41.724Z,8.40
2019-04-11T20:52:51.322Z,8.30
2019-04-11T20:56:59.623Z,8.40
2019-04-11T21:01:07.578Z,8.30
2019-04-11T21:05:17.733Z,8.30
2019-04-11T21:09:27.547Z,8.30
2019-04-11T21:13:38.052Z,8.30
2019-04-11T21:17:46.162Z,8.20
2019-04-11T21:21:54.424Z,8.20
2019-04-11T21:26:05.867Z,8.00
2019-04-11T21:30:12.383Z,8.10
2019-04-11T21:34:19.744Z,8.10
2019-04-11T21:38:30.866Z,8.20
2019-04-11T21:42:39.696Z,8.10
2019-04-11T21:46:49.557Z,8.00
2019-04-11T21:51:00.287Z,8.10
2019-04-11T21:55:15.173Z,8.10
2019-04-11T21:59:21.026Z,8.10
2019-04-11T22:03:31.784Z,8.00
2019-04-11T22:07:43.100Z,8.00
2019-04-11T22:11:50.462Z,8.00
2019-04-11T22:16:02.389Z,7.90
2019-04-11T22:20:09.660Z,8.00
2019-04-11T22:24:17.198Z,8.00
2019-04-11T22:28:25.702Z,7.90
2019-04-11T22:32:33.216Z,8.00
2019-04-11T22:36:42.033Z,7.80
2019-04-11T22:40:50.292Z,7.90
2019-04-11T22:44:58.145Z,7.70
2019-04-11T22:49:08.880Z,7.80
2019-04-11T22:53:16.169Z,7.70
2019-04-11T22:57:28.263Z,7.60
2019-04-11T23:01:35.612Z,7.70
2019-04-11T23:05:46.512Z,7.60
2019-04-11T23:09:54.767Z,7.60
2019-04-11T23:14:03.029Z,7.80
2019-04-11T23:18:11.841Z,7.70
2019-04-11T23:22:20.481Z,7.60
2019-04-11T23:26:28.130Z,7.70
2019-04-11T23:30:36.315Z,7.70
2019-04-11T23:34:43.656Z,7.70
2019-04-11T23:38:53.742Z,7.70
2019-04-11T23:43:01.370Z,7.60
2019-04-11T23:47:12.004Z,7.70
2019-04-11T23:51:25.291Z,7.70
2019-04-11T23:55:30.742Z,7.70
2019-04-11T23:59:38.499Z,7.80
